createdAt,value
2019-03-25T00:01:02.293Z,94822.19
2019-03-25T00:03:36.083Z,94818.63
2019-03-25T00:06:09.825Z,94815.48
2019-03-25T00:08:43.574Z,94813.09
2019-03-25T00:11:17.489Z,94813.55
2019-03-25T00:13:51.354Z,94815.20
2019-03-25T00:16:25.010Z,94806.92
2019-03-25T00:18:58.904Z,94805.74
2019-03-25T00:21:32.568Z,94807.77
2019-03-25T00:24:06.610Z,94806.16
2019-03-25T00:26:40.104Z,94803.63
2019-03-25T00:29:13.951Z,94804.95
2019-03-25T00:31:47.536Z,94809.30
2019-03-25T00:34:21.133Z,94809.01
2019-03-25T00:36:55.138Z,94809.30
2019-03-25T00:39:29.076Z,94814.42
2019-03-25T00:42:02.745Z,94808.59
2019-03-25T00:44:36.301Z,94800.39
2019-03-25T00:47:10.310Z,94794.53
2019-03-25T00:49:44.163Z,94795.80
2019-03-25T00:52:18.083Z,94798.88
2019-03-25T00:54:51.632Z,94796.55
2019-03-25T00:57:25.420Z,94798.52
2019-03-25T00:59:59.454Z,94791.74
2019-03-25T01:02:34.238Z,94791.69
2019-03-25T01:05:08.799Z,94786.20
2019-03-25T01:07:42.735Z,94784.90
2019-03-25T01:10:16.796Z,94782.34
2019-03-25T01:13:10.747Z,94778.31
2019-03-25T01:15:44.438Z,94776.47
2019-03-25T01:18:18.096Z,94775.91
2019-03-25T01:20:51.645Z,94778.38
2019-03-25T01:23:25.658Z,94772.58
2019-03-25T01:25:59.527Z,94771.34
2019-03-25T01:28:33.152Z,94775.85
2019-03-25T01:31:07.009Z,94775.72
2019-03-25T01:33:41.324Z,94772.54
2019-03-25T01:36:15.244Z,94770.23
2019-03-25T01:38:49.030Z,94771.01
2019-03-25T01:41:22.790Z,94771.78
2019-03-25T01:43:58.152Z,94771.81
2019-03-25T01:46:34.051Z,94775.23
2019-03-25T01:49:07.997Z,94764.20
2019-03-25T01:51:41.705Z,94763.91
2019-03-25T01:54:15.235Z,94760.95
2019-03-25T01:56:49.270Z,94759.06
2019-03-25T01:59:23.284Z,94752.03
2019-03-25T02:01:57.011Z,94752.09
2019-03-25T02:04:30.586Z,94748.25
2019-03-25T02:07:04.414Z,94744.23
2019-03-25T02:09:37.943Z,94742.03
2019-03-25T02:12:11.779Z,94742.81
2019-03-25T02:14:45.799Z,94739.47
2019-03-25T02:17:19.738Z,94731.77
2019-03-25T02:19:53.358Z,94733.30
2019-03-25T02:22:27.530Z,94731.38
2019-03-25T02:25:03.069Z,94727.39
2019-03-25T02:27:36.986Z,94722.98
2019-03-25T02:30:11.415Z,94713.27
2019-03-25T02:32:45.247Z,94713.98
2019-03-25T02:35:19.123Z,94707.70
2019-03-25T02:37:53.034Z,94702.20
2019-03-25T02:40:26.785Z,94701.71
2019-03-25T02:43:02.210Z,94702.10
2019-03-25T02:45:36.130Z,94699.59
2019-03-25T02:48:09.751Z,94700.92
2019-03-25T02:50:43.547Z,94697.29
2019-03-25T02:53:17.351Z,94686.41
2019-03-25T02:55:52.600Z,94683.59
2019-03-25T02:58:28.555Z,94684.75
2019-03-25T03:01:02.642Z,94691.41
2019-03-25T03:03:36.380Z,94699.83
2019-03-25T03:06:10.360Z,94690.73
2019-03-25T03:08:47.369Z,94688.08
2019-03-25T03:11:19.963Z,94694.42
2019-03-25T03:13:53.569Z,94698.70
2019-03-25T03:16:28.229Z,94700.28
2019-03-25T03:19:01.914Z,94702.58
2019-03-25T03:21:35.586Z,94701.61
2019-03-25T03:24:09.700Z,94698.19
2019-03-25T03:26:43.455Z,94700.26
2019-03-25T03:29:17.111Z,94694.17
2019-03-25T03:31:51.015Z,94688.70
2019-03-25T03:34:24.678Z,94681.49
2019-03-25T03:36:58.800Z,94685.76
2019-03-25T03:39:32.553Z,94678.25
2019-03-25T03:42:06.401Z,94670.35
2019-03-25T03:44:40.527Z,94671.42
2019-03-25T03:47:14.316Z,94671.88
2019-03-25T03:49:48.420Z,94670.64
2019-03-25T03:52:23.778Z,94666.98
2019-03-25T03:54:57.826Z,94665.59
2019-03-25T03:57:32.611Z,94664.51
2019-03-25T04:00:06.825Z,94661.24
2019-03-25T04:02:40.888Z,94667.73
2019-03-25T04:05:15.824Z,94664.98
2019-03-25T04:07:49.383Z,94663.19
2019-03-25T04:10:22.968Z,94662.36
2019-03-25T04:12:57.038Z,94656.52
2019-03-25T04:15:33.112Z,94653.13
2019-03-25T04:18:06.878Z,94655.73
2019-03-25T04:20:40.935Z,94648.32
2019-03-25T04:23:14.907Z,94651.66
2019-03-25T04:25:49.006Z,94653.36
2019-03-25T04:28:22.956Z,94646.76
2019-03-25T04:30:56.848Z,94646.92
2019-03-25T04:33:30.602Z,94655.69
2019-03-25T04:36:05.933Z,94660.88
2019-03-25T04:38:39.634Z,94661.27
2019-03-25T04:41:13.593Z,94660.24
2019-03-25T04:43:47.496Z,94656.09
2019-03-25T04:46:21.704Z,94659.91
2019-03-25T04:48:55.761Z,94660.80
2019-03-25T04:51:35.776Z,94663.80
2019-03-25T04:54:09.975Z,94663.13
2019-03-25T04:56:43.684Z,94661.73
2019-03-25T04:59:17.823Z,94661.35
2019-03-25T05:01:53.066Z,94657.17
2019-03-25T05:04:26.955Z,94655.98
2019-03-25T05:07:01.181Z,94654.23
2019-03-25T05:09:41.118Z,94658.28
2019-03-25T05:12:21.475Z,94657.59
2019-03-25T05:15:01.560Z,94658.13
2019-03-25T05:17:39.751Z,94660.81
2019-03-25T05:20:19.353Z,94655.94
2019-03-25T05:22:57.624Z,94656.68
2019-03-25T05:25:45.219Z,94652.95
2019-03-25T05:28:25.270Z,94645.53
2019-03-25T05:31:01.016Z,94649.32
2019-03-25T05:33:39.127Z,94644.41
2019-03-25T05:36:21.293Z,94639.88
2019-03-25T05:38:59.556Z,94635.23
2019-03-25T05:41:38.903Z,94633.26
2019-03-25T05:44:19.486Z,94625.97
2019-03-25T05:47:00.269Z,94621.83
2019-03-25T05:49:41.586Z,94621.88
2019-03-25T05:52:23.000Z,94618.02
2019-03-25T05:55:00.567Z,94623.58
2019-03-25T05:57:39.141Z,94622.50
2019-03-25T06:00:16.886Z,94620.65
2019-03-25T06:03:01.470Z,94614.64
2019-03-25T06:05:40.522Z,94606.84
2019-03-25T06:08:23.203Z,94606.36
2019-03-25T06:11:00.983Z,94600.25
2019-03-25T06:13:38.235Z,94599.69
2019-03-25T06:16:21.162Z,94596.09
2019-03-25T06:18:58.549Z,94602.39
2019-03-25T06:21:34.874Z,94602.19
2019-03-25T06:24:12.915Z,94595.07
2019-03-25T06:26:52.171Z,94596.14
2019-03-25T06:29:32.180Z,94592.10
2019-03-25T06:32:13.694Z,94590.28
2019-03-25T06:34:50.735Z,94587.27
2019-03-25T06:37:30.544Z,94583.09
2019-03-25T06:40:09.307Z,94586.25
2019-03-25T06:42:49.454Z,94581.91
2019-03-25T06:45:28.598Z,94578.64
2019-03-25T06:48:03.992Z,94581.91
2019-03-25T06:50:40.011Z,94579.45
2019-03-25T06:53:18.799Z,94580.89
2019-03-25T06:55:58.922Z,94581.13
2019-03-25T06:58:39.588Z,94576.95
2019-03-25T07:01:15.484Z,94579.29
2019-03-25T07:03:54.613Z,94574.70
2019-03-25T07:06:35.036Z,94571.12
2019-03-25T07:09:11.687Z,94573.05
2019-03-25T07:11:53.234Z,94573.48
2019-03-25T07:14:36.931Z,94565.24
2019-03-25T07:17:16.389Z,94570.94
2019-03-25T07:19:54.728Z,94565.36
2019-03-25T07:22:33.275Z,94568.31
2019-03-25T07:25:09.743Z,94558.97
2019-03-25T07:27:47.900Z,94559.87
2019-03-25T07:30:26.411Z,94552.33
2019-03-25T07:33:04.471Z,94546.55
2019-03-25T07:35:42.073Z,94542.97
2019-03-25T07:38:21.428Z,94543.43
2019-03-25T07:41:00.828Z,94540.91
2019-03-25T07:43:44.086Z,94530.45
2019-03-25T07:46:22.426Z,94538.89
2019-03-25T07:48:57.979Z,94537.34
2019-03-25T07:51:34.839Z,94530.34
2019-03-25T07:54:11.772Z,94531.56
2019-03-25T07:56:50.320Z,94525.48
2019-03-25T07:59:36.611Z,94521.56
2019-03-25T08:02:11.092Z,94515.77
2019-03-25T08:04:49.695Z,94516.36
2019-03-25T08:07:28.235Z,94508.28
2019-03-25T08:10:04.749Z,94493.43
2019-03-25T08:12:42.284Z,94489.94
2019-03-25T08:15:33.944Z,94491.06
2019-03-25T08:18:10.776Z,94486.14
2019-03-25T08:20:48.244Z,94482.67
2019-03-25T08:23:26.944Z,94476.07
2019-03-25T08:26:06.234Z,94470.52
2019-03-25T08:28:43.925Z,94464.92
2019-03-25T08:31:25.109Z,94462.94
2019-03-25T08:34:03.184Z,94453.88
2019-03-25T08:36:45.115Z,94453.64
2019-03-25T08:39:25.709Z,94455.53
2019-03-25T08:42:07.786Z,94447.45
2019-03-25T08:44:45.173Z,94443.36
2019-03-25T08:47:26.562Z,94446.00
2019-03-25T08:50:04.314Z,94436.03
2019-03-25T08:52:41.268Z,94425.65
2019-03-25T08:55:19.383Z,94428.78
2019-03-25T08:58:11.232Z,94422.27
2019-03-25T09:00:41.538Z,94410.24
2019-03-25T09:03:18.268Z,94410.33
2019-03-25T09:05:59.599Z,94403.84
2019-03-25T09:08:37.134Z,94395.92
2019-03-25T09:11:15.852Z,94391.44
2019-03-25T09:13:54.984Z,94385.23
2019-03-25T09:16:34.631Z,94379.19
2019-03-25T09:19:13.397Z,94372.62
2019-03-25T09:21:48.697Z,94366.00
2019-03-25T09:24:27.533Z,94358.30
2019-03-25T09:27:03.252Z,94358.98
2019-03-25T09:29:41.989Z,94358.44
2019-03-25T09:32:17.744Z,94360.50
2019-03-25T09:34:56.908Z,94350.76
2019-03-25T09:37:34.542Z,94337.10
2019-03-25T09:40:12.730Z,94328.38
2019-03-25T09:42:52.667Z,94315.94
2019-03-25T09:45:31.136Z,94321.38
2019-03-25T09:48:10.259Z,94314.26
2019-03-25T09:50:48.104Z,94305.63
2019-03-25T09:53:21.931Z,94307.41
2019-03-25T09:55:58.383Z,94292.03
2019-03-25T09:58:39.209Z,94288.91
2019-03-25T10:01:18.818Z,94276.89
2019-03-25T10:03:55.691Z,94273.28
2019-03-25T10:06:31.704Z,94273.00
2019-03-25T10:09:15.859Z,94269.56
2019-03-25T10:11:55.285Z,94261.09
2019-03-25T10:14:34.631Z,94254.89
2019-03-25T10:17:11.997Z,94249.55
2019-03-25T10:19:48.576Z,94249.05
2019-03-25T10:22:30.405Z,94238.52
2019-03-25T10:25:06.761Z,94229.52
2019-03-25T10:27:45.423Z,94231.02
2019-03-25T10:30:24.969Z,94222.86
2019-03-25T10:33:02.734Z,94215.16
2019-03-25T10:35:41.659Z,94212.13
2019-03-25T10:38:22.675Z,94211.38
2019-03-25T10:41:01.698Z,94202.70
2019-03-25T10:43:40.943Z,94197.12
2019-03-25T10:46:19.720Z,94192.19
2019-03-25T10:48:57.087Z,94183.45
2019-03-25T10:51:33.410Z,94178.97
2019-03-25T10:54:10.587Z,94170.23
2019-03-25T10:56:49.270Z,94169.67
2019-03-25T10:59:24.530Z,94160.83
2019-03-25T11:02:00.696Z,94160.17
2019-03-25T11:04:38.167Z,94149.77
2019-03-25T11:07:16.254Z,94150.12
2019-03-25T11:09:52.787Z,94140.41
2019-03-25T11:12:31.890Z,94131.44
2019-03-25T11:15:13.775Z,94128.28
2019-03-25T11:17:55.538Z,94115.61
2019-03-25T11:20:33.562Z,94104.75
2019-03-25T11:23:15.296Z,94104.53
2019-03-25T11:25:55.665Z,94101.22
2019-03-25T11:28:32.659Z,94088.19
2019-03-25T11:31:10.256Z,94085.23
2019-03-25T11:33:48.081Z,94085.73
2019-03-25T11:36:28.077Z,94068.63
2019-03-25T11:39:08.495Z,94075.50
2019-03-25T11:41:45.689Z,94065.86
2019-03-25T11:44:32.647Z,94055.48
2019-03-25T11:47:09.018Z,94046.44
2019-03-25T11:49:51.286Z,94050.92
2019-03-25T11:52:30.335Z,94045.98
2019-03-25T11:55:08.780Z,94031.31
2019-03-25T11:57:48.112Z,94020.74
2019-03-25T12:00:26.483Z,94009.83
2019-03-25T12:03:04.100Z,94012.39
2019-03-25T12:05:40.829Z,94011.66
2019-03-25T12:08:19.355Z,94005.61
2019-03-25T12:10:55.456Z,93999.87
2019-03-25T12:13:32.237Z,93998.82
2019-03-25T12:16:08.591Z,93996.23
2019-03-25T12:18:48.136Z,93994.14
2019-03-25T12:21:26.317Z,93991.78
2019-03-25T12:24:05.742Z,93991.09
2019-03-25T12:26:45.310Z,93981.67
2019-03-25T12:29:29.709Z,93981.68
2019-03-25T12:32:01.267Z,93972.49
2019-03-25T12:34:46.688Z,93970.97
2019-03-25T12:37:24.429Z,93964.16
2019-03-25T12:40:04.622Z,93955.94
2019-03-25T12:42:40.525Z,93949.52
2019-03-25T12:45:17.853Z,93942.25
2019-03-25T12:47:57.301Z,93938.27
2019-03-25T12:50:36.892Z,93936.61
2019-03-25T12:53:13.362Z,93941.05
2019-03-25T12:55:53.547Z,93934.13
2019-03-25T12:58:31.785Z,93928.13
2019-03-25T13:01:10.165Z,93931.62
2019-03-25T13:03:50.813Z,93928.38
2019-03-25T13:06:28.421Z,93915.30
2019-03-25T13:09:05.314Z,93914.39
2019-03-25T13:11:44.965Z,93913.61
2019-03-25T13:14:22.234Z,93916.45
2019-03-25T13:17:01.679Z,93909.38
2019-03-25T13:19:41.702Z,93901.55
2019-03-25T13:22:24.027Z,93898.76
2019-03-25T13:25:04.755Z,93888.23
2019-03-25T13:27:42.903Z,93891.59
2019-03-25T13:30:19.642Z,93887.41
2019-03-25T13:32:58.042Z,93889.36
2019-03-25T13:35:39.517Z,93892.70
2019-03-25T13:38:24.692Z,93884.50
2019-03-25T13:41:01.442Z,93887.93
2019-03-25T13:43:43.967Z,93883.00
2019-03-25T13:46:19.208Z,93875.61
2019-03-25T13:48:55.252Z,93878.61
2019-03-25T13:51:32.492Z,93869.33
2019-03-25T13:54:14.478Z,93864.25
2019-03-25T13:56:53.962Z,93867.44
2019-03-25T13:59:35.329Z,93865.91
2019-03-25T14:02:17.183Z,93864.36
2019-03-25T14:04:54.451Z,93856.81
2019-03-25T14:07:29.910Z,93854.88
2019-03-25T14:10:09.771Z,93850.00
2019-03-25T14:12:48.973Z,93853.23
2019-03-25T14:15:27.748Z,93849.77
2019-03-25T14:18:08.259Z,93841.14
2019-03-25T14:20:45.564Z,93840.07
2019-03-25T14:23:21.779Z,93837.28
2019-03-25T14:26:02.892Z,93849.55
2019-03-25T14:28:52.777Z,93840.27
2019-03-25T14:31:26.948Z,93835.58
2019-03-25T14:34:03.100Z,93833.70
2019-03-25T14:36:37.280Z,93831.00
2019-03-25T14:39:11.245Z,93832.55
2019-03-25T14:41:45.424Z,93825.53
2019-03-25T14:44:19.284Z,93825.35
2019-03-25T14:46:53.280Z,93825.50
2019-03-25T14:49:27.552Z,93824.05
2019-03-25T14:52:01.767Z,93829.67
2019-03-25T14:54:36.157Z,93827.90
2019-03-25T14:57:10.514Z,93827.31
2019-03-25T14:59:44.512Z,93827.59
2019-03-25T15:02:20.595Z,93824.64
2019-03-25T15:04:54.863Z,93825.71
2019-03-25T15:07:29.381Z,93823.28
2019-03-25T15:10:03.971Z,93822.98
2019-03-25T15:12:38.122Z,93825.16
2019-03-25T15:15:13.119Z,93819.45
2019-03-25T15:17:47.437Z,93815.30
2019-03-25T15:20:21.981Z,93815.52
2019-03-25T15:22:56.833Z,93821.13
2019-03-25T15:25:30.817Z,93821.36
2019-03-25T15:28:04.894Z,93822.65
2019-03-25T15:30:39.216Z,93823.91
2019-03-25T15:33:15.035Z,93822.17
2019-03-25T15:35:49.371Z,93817.83
2019-03-25T15:38:25.459Z,93819.89
2019-03-25T15:40:59.851Z,93819.32
2019-03-25T15:43:33.983Z,93816.08
2019-03-25T15:46:08.296Z,93815.79
2019-03-25T15:48:42.419Z,93816.34
2019-03-25T15:51:16.376Z,93813.64
2019-03-25T15:53:50.817Z,93813.60
2019-03-25T15:56:25.159Z,93809.27
2019-03-25T15:58:59.771Z,93811.36
2019-03-25T16:01:34.467Z,93811.18
2019-03-25T16:04:08.746Z,93808.88
2019-03-25T16:06:43.052Z,93808.45
2019-03-25T16:09:16.914Z,93809.16
2019-03-25T16:11:51.124Z,93810.63
2019-03-25T16:14:25.739Z,93812.09
2019-03-25T16:16:59.822Z,93811.95
2019-03-25T16:19:34.514Z,93815.25
2019-03-25T16:22:10.015Z,93818.17
2019-03-25T16:24:44.322Z,93817.75
2019-03-25T16:27:18.394Z,93818.48
2019-03-25T16:29:52.489Z,93815.95
2019-03-25T16:32:26.395Z,93827.41
2019-03-25T16:35:00.636Z,93822.83
2019-03-25T16:37:34.844Z,93825.59
2019-03-25T16:40:09.570Z,93825.75
2019-03-25T16:42:43.511Z,93825.52
2019-03-25T16:45:17.635Z,93825.56
2019-03-25T16:47:51.836Z,93827.26
2019-03-25T16:50:26.139Z,93829.67
2019-03-25T16:53:00.460Z,93823.70
2019-03-25T16:55:35.011Z,93831.58
2019-03-25T16:58:09.114Z,93824.80
2019-03-25T17:00:42.997Z,93826.09
2019-03-25T17:03:17.105Z,93828.41
2019-03-25T17:05:51.406Z,93823.73
2019-03-25T17:08:25.824Z,93830.96
2019-03-25T17:10:59.653Z,93834.19
2019-03-25T17:13:33.700Z,93834.80
2019-03-25T17:16:08.215Z,93832.85
2019-03-25T17:18:42.321Z,93836.23
2019-03-25T17:21:16.306Z,93838.20
2019-03-25T17:23:50.680Z,93834.31
2019-03-25T17:26:25.131Z,93839.73
2019-03-25T17:28:59.115Z,93838.88
2019-03-25T17:31:33.593Z,93840.77
2019-03-25T17:34:07.992Z,93843.13
2019-03-25T17:36:41.561Z,93853.62
2019-03-25T17:39:15.999Z,93852.38
2019-03-25T17:41:50.409Z,93855.41
2019-03-25T17:44:24.210Z,93860.96
2019-03-25T17:46:58.372Z,93863.78
2019-03-25T17:49:33.979Z,93867.66
2019-03-25T17:52:07.848Z,93867.67
2019-03-25T17:54:41.684Z,93870.91
2019-03-25T17:57:15.466Z,93868.30
2019-03-25T17:59:49.243Z,93870.23
2019-03-25T18:02:23.493Z,93868.39
2019-03-25T18:04:57.970Z,93870.67
2019-03-25T18:07:32.020Z,93870.05
2019-03-25T18:10:06.382Z,93867.38
2019-03-25T18:12:40.555Z,93874.69
2019-03-25T18:15:15.383Z,93871.75
2019-03-25T18:17:49.408Z,93871.02
2019-03-25T18:20:23.173Z,93876.33
2019-03-25T18:22:57.279Z,93881.31
2019-03-25T18:25:31.225Z,93883.11
2019-03-25T18:28:05.184Z,93885.02
2019-03-25T18:30:39.103Z,93891.10
2019-03-25T18:33:13.452Z,93884.19
2019-03-25T18:35:47.298Z,93888.72
2019-03-25T18:38:21.457Z,93883.36
2019-03-25T18:40:55.460Z,93886.77
2019-03-25T18:43:29.761Z,93886.81
2019-03-25T18:46:04.013Z,93886.34
2019-03-25T18:48:38.036Z,93889.34
2019-03-25T18:51:12.090Z,93888.60
2019-03-25T18:53:46.215Z,93888.89
2019-03-25T18:56:20.942Z,93887.02
2019-03-25T18:58:54.880Z,93889.17
2019-03-25T19:01:28.768Z,93894.61
2019-03-25T19:04:02.443Z,93894.09
2019-03-25T19:06:37.327Z,93895.15
2019-03-25T19:09:11.969Z,93897.81
2019-03-25T19:11:46.244Z,93907.17
2019-03-25T19:14:20.380Z,93903.80
2019-03-25T19:16:54.438Z,93909.09
2019-03-25T19:19:28.880Z,93906.13
2019-03-25T19:22:05.256Z,93910.61
2019-03-25T19:24:38.910Z,93904.50
2019-03-25T19:27:12.989Z,93903.83
2019-03-25T19:29:46.782Z,93905.08
2019-03-25T19:32:20.754Z,93907.14
2019-03-25T19:34:54.766Z,93909.23
2019-03-25T19:37:29.009Z,93910.26
2019-03-25T19:40:03.442Z,93906.62
2019-03-25T19:42:38.378Z,93905.77
2019-03-25T19:45:13.137Z,93902.63
2019-03-25T19:47:47.215Z,93902.29
2019-03-25T19:50:22.101Z,93900.27
2019-03-25T19:52:56.265Z,93905.70
2019-03-25T19:55:30.547Z,93907.20
2019-03-25T19:58:04.266Z,93909.69
2019-03-25T20:00:40.658Z,93910.33
2019-03-25T20:03:14.853Z,93913.81
2019-03-25T20:05:48.873Z,93917.88
2019-03-25T20:08:23.293Z,93914.58
2019-03-25T20:10:57.134Z,93916.20
2019-03-25T20:13:31.091Z,93918.45
2019-03-25T20:16:07.210Z,93914.34
2019-03-25T20:18:41.400Z,93919.87
2019-03-25T20:21:14.964Z,93920.13
2019-03-25T20:23:50.505Z,93927.42
2019-03-25T20:26:24.608Z,93925.84
2019-03-25T20:28:59.009Z,93923.84
2019-03-25T20:31:33.121Z,93926.56
2019-03-25T20:34:11.262Z,93928.20
2019-03-25T20:36:42.681Z,93925.32
2019-03-25T20:39:16.865Z,93922.95
2019-03-25T20:41:50.647Z,93923.68
2019-03-25T20:44:24.819Z,93927.22
2019-03-25T20:46:58.900Z,93918.20
2019-03-25T20:49:33.082Z,93922.25
2019-03-25T20:52:07.035Z,93920.33
2019-03-25T20:54:41.573Z,93921.50
2019-03-25T20:57:15.711Z,93921.84
2019-03-25T20:59:49.547Z,93929.59
2019-03-25T21:02:23.673Z,93925.61
2019-03-25T21:04:57.583Z,93928.05
2019-03-25T21:07:31.648Z,93930.83
2019-03-25T21:10:06.683Z,93932.53
2019-03-25T21:12:40.912Z,93931.61
2019-03-25T21:15:15.257Z,93929.91
2019-03-25T21:17:49.299Z,93931.66
2019-03-25T21:20:23.348Z,93930.48
2019-03-25T21:22:57.495Z,93933.28
2019-03-25T21:25:31.445Z,93935.98
2019-03-25T21:28:05.857Z,93939.91
2019-03-25T21:30:47.845Z,93936.25
2019-03-25T21:33:17.621Z,93939.45
2019-03-25T21:35:53.060Z,93943.19
2019-03-25T21:38:27.173Z,93944.48
2019-03-25T21:41:01.203Z,93945.44
2019-03-25T21:43:35.257Z,93945.05
2019-03-25T21:46:09.508Z,93943.70
2019-03-25T21:48:43.338Z,93939.98
2019-03-25T21:51:18.089Z,93941.24
2019-03-25T21:53:53.300Z,93945.66
2019-03-25T21:56:27.463Z,93946.69
2019-03-25T21:59:01.492Z,93948.15
2019-03-25T22:01:35.519Z,93947.75
2019-03-25T22:04:09.652Z,93949.74
2019-03-25T22:06:43.593Z,93951.24
2019-03-25T22:09:17.941Z,93949.91
2019-03-25T22:11:51.738Z,93946.53
2019-03-25T22:14:25.705Z,93954.39
2019-03-25T22:16:59.492Z,93951.20
2019-03-25T22:19:33.379Z,93948.95
2019-03-25T22:22:07.678Z,93944.62
2019-03-25T22:24:41.914Z,93953.55
2019-03-25T22:27:15.852Z,93963.03
2019-03-25T22:29:49.582Z,93954.66
2019-03-25T22:32:23.363Z,93953.52
2019-03-25T22:34:58.530Z,93956.05
2019-03-25T22:37:32.239Z,93949.69
2019-03-25T22:40:06.698Z,93949.91
2019-03-25T22:42:40.618Z,93951.59
2019-03-25T22:45:14.858Z,93955.27
2019-03-25T22:47:48.684Z,93953.91
2019-03-25T22:50:33.719Z,93959.39
2019-03-25T22:53:07.857Z,93971.11
2019-03-25T22:55:41.646Z,93970.44
2019-03-25T22:58:25.854Z,93975.55
2019-03-25T23:01:01.978Z,93978.09
2019-03-25T23:03:39.422Z,93982.41
2019-03-25T23:06:11.693Z,93986.42
2019-03-25T23:08:45.476Z,93976.47
2019-03-25T23:11:19.218Z,93987.19
2019-03-25T23:13:52.742Z,93991.31
2019-03-25T23:16:26.497Z,93983.29
2019-03-25T23:19:00.662Z,93985.13
2019-03-25T23:21:36.464Z,93992.63
2019-03-25T23:24:10.248Z,94000.78
2019-03-25T23:26:44.366Z,93998.98
2019-03-25T23:29:18.212Z,93989.78
2019-03-25T23:31:52.163Z,93988.78
2019-03-25T23:34:25.954Z,93993.89
2019-03-25T23:36:59.860Z,93995.09
2019-03-25T23:39:33.965Z,93998.91
2019-03-25T23:42:07.890Z,94007.60
2019-03-25T23:44:41.847Z,94007.12
2019-03-25T23:47:15.674Z,94001.99
2019-03-25T23:49:49.588Z,94009.98
2019-03-25T23:52:23.718Z,94016.75
2019-03-25T23:54:57.492Z,94016.77
2019-03-25T23:57:32.421Z,94017.17
